Mount Hood, OR

7:05 PM PDT on September 15, 2014 (GMT -0700)
Portland International | Change Station
CLOSE
Current Station
Airport
Location: Portland,
Elevation: 16 ft
Nearby Weather Stations
Active Advisory: Fire Weather Warning

Elev 16 ft 45.60 °N, 122.61 °W | Updated 12 minutes ago

Partly Cloudy
Partly Cloudy
81 °F
Feels Like 81 °F
N
8
Wind Variable Wind from East

Today
High -- | Low -- °F
--% Chance of Precip.
Yesterday
High -- | Low -- °F
Precip. -- in
6:44 AM 7:17 PM
Waning Gibbous, 50% visible
Pressure 29.76 in
Visibility 10.0 miles
Clouds Few 6000 ft
Mostly Cloudy 25000 ft
Dew Point 43 °F
Humidity 26%
Rainfall 0.00 in
Snow Depth 0 in , 1 in , 0 in
UV 0 out of 12
Pollen 3.00 out of 12
Air Quality Not available.
Flu Activity Not available.
METAR KPDX 160153Z 10007KT 10SM FEW060 BKN250 27/06 A2976 RMK AO2 SLP078 FU FEW060 T02720061

More Conditions Fewer Conditions

Pressure 29.76 in
Visibility 10.0 miles
Clouds Few 6000 ft
Mostly Cloudy 25000 ft
Dew Point 43 °F
Humidity 26%
Rainfall 0.00 in
Snow Depth 0 in , 1 in , 0 in
UV 0 out of 12
Pollen 3.00 out of 12
Air Quality Not available.
Flu Activity Not available.
METAR KPDX 160153Z 10007KT 10SM FEW060 BKN250 27/06 A2976 RMK AO2 SLP078 FU FEW060 T02720061

More Conditions Fewer Conditions

10-Day Weather Forecast

Almanac

Astronomy

Sep. 15, 2014 Rise Set
Actual Time 6:44 AM PDT 7:17 PM PDT
Civil Twilight 6:15 AM PDT 7:46 PM PDT
Nautical Twilight 5:39 AM PDT 8:22 PM PDT
Astronomical Twilight 5:03 AM PDT 8:58 PM PDT
Moon 11:47 PM PDT (9/15) 2:06 PM PDT (9/15)
Length of Visible Light 13h 31m
Length of Day
12h 32m
Tomorrow will be 3m 9s shorter.
Waning Gibbous, 50% of the Moon is Illuminated
Today
Waning Gibbous
Sep 15
Last Quarter
Sep 24
New
Oct 1
First Quarter
Oct 8
Full

Today's Extremes

State Highs State Lows

Community

WunderPhotos

Upload Photos

1,753,650 photos uploaded!

WunderBlogs® & News

Nearby

Snow Depth

Station Depth Elevation
North Fork 0 in 3120 ft
Mt. Howard 1 in 7910 ft
Strawberry 0 in 5760 ft
Peavine Ridge 0 in 3500 ft
Mckenzie 0 in 4800 ft

Earthquake Activity

City Distance Mag. Time & Date
No recent earthquake activity has been reported nearby.
Minimum magnitude displayed is 2.5.

Coastal Water Temperatures

Place Temperature
No Stations Reporting

Nearby Weather Stations